Time;durP1;ratioP1;P1;durP2;ratioP2;P2;SDS_P1;SDS_P2;PMS_P1;PMS_P2;Temp;Humidity;BMP_temperature;BMP_pressure;BME280_temperature;BME280_humidity;BME280_pressure;Samples;Min_cycle;Max_cycle;Signal;HPM_P1;HPM_P2
2022/08/06 00:01:35;;;;;;;3.42;1.30;;;;;;;;;;5108511;28;20901;-54
2022/08/06 00:04:01;;;;;;;2.17;1.40;;;;;;;;;;5109378;28;20408;-54
2022/08/06 00:06:27;;;;;;;3.33;1.23;;;;;;;;;;5109198;28;20393;-54
2022/08/06 00:08:53;;;;;;;2.58;1.60;;;;;;;;;;5108546;28;20415;-55
2022/08/06 00:11:20;;;;;;;1.75;1.40;;;;;;;;;;5110207;28;20400;-54
2022/08/06 00:13:46;;;;;;;1.70;1.40;;;;;;;;;;5109831;28;20467;-55
2022/08/06 00:16:12;;;;;;;3.72;1.55;;;;;;;;;;5113008;28;20418;-55
2022/08/06 00:18:38;;;;;;;4.00;1.43;;;;;;;;;;5113836;28;20916;-55
2022/08/06 00:21:04;;;;;;;3.05;1.73;;;;;;;;;;5113118;28;20408;-53
2022/08/06 00:23:30;;;;;;;2.63;1.50;;;;;;;;;;5113567;28;20443;-54
2022/08/06 00:25:56;;;;;;;2.35;1.40;;;;;;;;;;5113403;28;20440;-54
2022/08/06 00:28:24;;;;;;;2.20;1.50;;;;;;;;;;5111260;28;20424;-54
2022/08/06 00:30:50;;;;;;;2.78;1.60;;;;;;;;;;5113328;28;20404;-54
2022/08/06 00:33:16;;;;;;;2.78;1.50;;;;;;;;;;5112241;28;20392;-54
2022/08/06 00:35:42;;;;;;;3.20;1.60;;;;;;;;;;5113254;28;20828;-54
2022/08/06 00:38:08;;;;;;;2.08;1.50;;;;;;;;;;5111585;28;20751;-54
2022/08/06 00:40:35;;;;;;;2.50;1.55;;;;;;;;;;5113661;28;20408;-56
2022/08/06 00:43:02;;;;;;;3.67;1.70;;;;;;;;;;5113144;28;20408;-54
2022/08/06 00:45:30;;;;;;;3.55;1.55;;;;;;;;;;5111636;27;20450;-54
2022/08/06 00:47:56;;;;;;;2.05;1.50;;;;;;;;;;5111142;27;20965;-54
2022/08/06 00:50:22;;;;;;;2.60;1.60;;;;;;;;;;5111131;28;20400;-54
2022/08/06 00:52:48;;;;;;;2.25;1.70;;;;;;;;;;5112969;28;20412;-55
2022/08/06 00:55:14;;;;;;;3.25;1.80;;;;;;;;;;5112938;28;20404;-55
2022/08/06 00:57:40;;;;;;;2.70;1.63;;;;;;;;;;5110785;27;20408;-55
2022/08/06 01:00:07;;;;;;;4.07;1.60;;;;;;;;;;5113234;28;20401;-56
2022/08/06 01:02:35;;;;;;;2.30;1.83;;;;;;;;;;5108951;28;20401;-56
2022/08/06 01:05:01;;;;;;;3.03;1.80;;;;;;;;;;5112574;28;20400;-55
2022/08/06 01:07:27;;;;;;;1.75;1.60;;;;;;;;;;5112332;28;20798;-55
2022/08/06 01:09:53;;;;;;;2.28;1.77;;;;;;;;;;5112199;28;20404;-55
2022/08/06 01:12:19;;;;;;;2.50;1.80;;;;;;;;;;5112383;28;20392;-55
2022/08/06 01:14:45;;;;;;;3.00;1.60;;;;;;;;;;5112450;27;20948;-55
2022/08/06 01:17:15;;;;;;;2.67;1.80;;;;;;;;;;5112323;28;20400;-56
2022/08/06 01:19:47;;;;;;;3.03;1.83;;;;;;;;;;5112331;28;20396;-56
2022/08/06 01:22:17;;;;;;;2.28;1.80;;;;;;;;;;5112333;28;20404;-55
2022/08/06 01:25:02;;;;;;;3.85;1.70;;;;;;;;;;5110557;28;20404;-55
2022/08/06 01:27:41;;;;;;;2.28;1.70;;;;;;;;;;5111533;28;20385;-55
2022/08/06 01:30:08;;;;;;;1.70;1.60;;;;;;;;;;5112059;27;20511;-55
2022/08/06 01:32:36;;;;;;;2.65;1.70;;;;;;;;;;5112540;28;20404;-55
2022/08/06 01:35:05;;;;;;;3.38;1.80;;;;;;;;;;5110751;28;20396;-55
2022/08/06 01:37:34;;;;;;;3.55;1.55;;;;;;;;;;5112001;28;20388;-55
2022/08/06 01:40:02;;;;;;;2.30;1.53;;;;;;;;;;5111294;28;20404;-55
2022/08/06 01:42:30;;;;;;;6.88;1.77;;;;;;;;;;5111897;28;20415;-55
2022/08/06 01:45:00;;;;;;;3.53;1.90;;;;;;;;;;5110480;28;20415;-55
2022/08/06 01:47:30;;;;;;;2.78;1.73;;;;;;;;;;5112081;28;20400;-55
2022/08/06 01:49:59;;;;;;;1.70;1.60;;;;;;;;;;5111662;28;20396;-56
2022/08/06 01:52:25;;;;;;;2.83;1.50;;;;;;;;;;5110460;28;20499;-55
2022/08/06 01:54:52;;;;;;;2.40;1.60;;;;;;;;;;5111764;28;20392;-54
2022/08/06 01:57:20;;;;;;;2.63;1.80;;;;;;;;;;5111447;28;20408;-55
2022/08/06 01:59:48;;;;;;;2.67;1.60;;;;;;;;;;5111841;28;20492;-54
2022/08/06 02:02:17;;;;;;;1.80;1.70;;;;;;;;;;5111562;28;20436;-56
2022/08/06 02:04:45;;;;;;;3.78;1.90;;;;;;;;;;5111616;28;20396;-54
2022/08/06 02:07:12;;;;;;;2.43;1.77;;;;;;;;;;5111215;28;20473;-56
2022/08/06 02:09:39;;;;;;;2.78;1.80;;;;;;;;;;5111578;28;20412;-55
2022/08/06 02:12:08;;;;;;;3.35;1.67;;;;;;;;;;5111382;28;20408;-54
2022/08/06 02:14:37;;;;;;;4.80;1.95;;;;;;;;;;5111438;28;20405;-54
2022/08/06 02:17:04;;;;;;;3.17;1.80;;;;;;;;;;5111348;28;20400;-54
2022/08/06 02:19:32;;;;;;;3.22;1.90;;;;;;;;;;5111484;28;20400;-55
2022/08/06 02:22:00;;;;;;;2.55;1.90;;;;;;;;;;5111101;28;20404;-55
2022/08/06 02:24:28;;;;;;;3.05;2.00;;;;;;;;;;5111058;28;20393;-55
2022/08/06 02:26:54;;;;;;;3.77;2.00;;;;;;;;;;5111076;27;20384;-55
2022/08/06 02:29:20;;;;;;;6.70;2.20;;;;;;;;;;5111045;28;20439;-55
2022/08/06 02:31:47;;;;;;;2.80;2.05;;;;;;;;;;5109836;28;20408;-55
2022/08/06 02:34:13;;;;;;;2.95;2.10;;;;;;;;;;5111549;28;20404;-55
2022/08/06 02:36:41;;;;;;;3.03;2.00;;;;;;;;;;5111134;28;20475;-55
2022/08/06 02:39:09;;;;;;;3.38;1.90;;;;;;;;;;5110243;28;20473;-55
2022/08/06 02:41:38;;;;;;;4.07;2.20;;;;;;;;;;5110990;28;20400;-55
2022/08/06 02:44:06;;;;;;;3.80;2.20;;;;;;;;;;5110831;28;20508;-55
2022/08/06 02:46:36;;;;;;;3.63;2.20;;;;;;;;;;5111133;28;20423;-55
2022/08/06 02:49:03;;;;;;;3.85;2.25;;;;;;;;;;5110788;28;20544;-55
2022/08/06 02:51:33;;;;;;;2.10;1.90;;;;;;;;;;5110791;28;20419;-55
2022/08/06 02:54:03;;;;;;;2.42;2.15;;;;;;;;;;5110622;28;20404;-55
2022/08/06 02:56:30;;;;;;;2.20;1.95;;;;;;;;;;5110214;28;20449;-56
2022/08/06 02:58:58;;;;;;;2.60;2.00;;;;;;;;;;5110491;28;20811;-55
2022/08/06 03:01:25;;;;;;;2.97;2.15;;;;;;;;;;5110874;28;20433;-56
2022/08/06 03:03:53;;;;;;;2.28;2.08;;;;;;;;;;5110689;28;20395;-55
2022/08/06 03:06:20;;;;;;;3.57;2.10;;;;;;;;;;5110585;28;20821;-55
2022/08/06 03:08:46;;;;;;;3.15;2.20;;;;;;;;;;5110822;28;20418;-56
2022/08/06 03:11:14;;;;;;;3.33;2.17;;;;;;;;;;5110773;28;20400;-55
2022/08/06 03:13:41;;;;;;;2.08;1.90;;;;;;;;;;5110592;28;20396;-55
2022/08/06 03:16:07;;;;;;;3.80;2.10;;;;;;;;;;5110639;28;20898;-55
2022/08/06 03:18:34;;;;;;;2.87;2.20;;;;;;;;;;5110707;28;20428;-55
2022/08/06 03:21:01;;;;;;;2.58;2.38;;;;;;;;;;5110594;28;20412;-55
2022/08/06 03:23:29;;;;;;;3.88;2.28;;;;;;;;;;5110675;28;20435;-56
2022/08/06 03:25:56;;;;;;;3.30;2.37;;;;;;;;;;5110502;28;20886;-55
2022/08/06 03:28:24;;;;;;;2.53;2.33;;;;;;;;;;5110508;28;20412;-55
2022/08/06 03:30:51;;;;;;;5.55;2.60;;;;;;;;;;5110472;28;20408;-55
2022/08/06 03:33:18;;;;;;;2.80;2.30;;;;;;;;;;5110627;28;20431;-55
2022/08/06 03:35:45;;;;;;;2.65;1.95;;;;;;;;;;5110549;28;20415;-55
2022/08/06 03:38:11;;;;;;;2.50;2.10;;;;;;;;;;5110423;28;20474;-55
2022/08/06 03:40:38;;;;;;;2.45;2.20;;;;;;;;;;5110529;28;20464;-55
2022/08/06 03:43:05;;;;;;;3.10;2.47;;;;;;;;;;5110233;28;20400;-55
2022/08/06 03:45:35;;;;;;;3.05;2.55;;;;;;;;;;5109094;28;20411;-55
2022/08/06 03:48:03;;;;;;;3.78;2.58;;;;;;;;;;5110707;28;20762;-55
2022/08/06 03:50:31;;;;;;;3.65;2.60;;;;;;;;;;5112801;28;20400;-56
2022/08/06 03:53:01;;;;;;;3.10;2.45;;;;;;;;;;5113917;28;20403;-55
2022/08/06 03:55:28;;;;;;;5.53;2.55;;;;;;;;;;5114084;28;20400;-55
2022/08/06 03:57:58;;;;;;;4.03;2.30;;;;;;;;;;5114190;27;20399;-55
2022/08/06 04:00:25;;;;;;;2.88;2.50;;;;;;;;;;5112458;28;20411;-55
2022/08/06 04:02:54;;;;;;;3.53;2.58;;;;;;;;;;5112803;28;20411;-55
2022/08/06 04:05:20;;;;;;;3.78;2.67;;;;;;;;;;5113681;28;20921;-56
2022/08/06 04:07:47;;;;;;;2.80;2.60;;;;;;;;;;5113772;28;20411;-55
2022/08/06 04:10:14;;;;;;;2.90;2.60;;;;;;;;;;5113599;28;20495;-55
2022/08/06 04:12:40;;;;;;;2.97;2.70;;;;;;;;;;5111797;28;20880;-55
2022/08/06 04:15:07;;;;;;;3.50;2.70;;;;;;;;;;5113240;28;20424;-55
2022/08/06 04:17:34;;;;;;;3.30;2.63;;;;;;;;;;5113595;28;20396;-55
2022/08/06 04:20:02;;;;;;;4.50;2.70;;;;;;;;;;5113568;28;20899;-55
2022/08/06 04:22:28;;;;;;;3.20;2.60;;;;;;;;;;5113565;28;20415;-55
2022/08/06 04:24:54;;;;;;;3.00;2.63;;;;;;;;;;5113526;27;20709;-56
2022/08/06 04:27:20;;;;;;;3.75;2.20;;;;;;;;;;5113586;28;20401;-55
2022/08/06 04:29:47;;;;;;;3.00;2.50;;;;;;;;;;5113445;28;20416;-55
2022/08/06 04:32:14;;;;;;;3.15;2.60;;;;;;;;;;5112150;28;20823;-55
2022/08/06 04:34:41;;;;;;;3.40;2.65;;;;;;;;;;5113509;28;20410;-55
2022/08/06 04:37:08;;;;;;;4.90;2.60;;;;;;;;;;5113168;28;20994;-55
2022/08/06 04:39:35;;;;;;;3.80;2.72;;;;;;;;;;5113104;28;20400;-55
2022/08/06 04:42:01;;;;;;;4.40;2.95;;;;;;;;;;5110414;28;20874;-56
2022/08/06 04:44:28;;;;;;;3.00;2.50;;;;;;;;;;5112494;27;20400;-56
2022/08/06 04:46:55;;;;;;;3.47;2.77;;;;;;;;;;5112428;28;20865;-56
2022/08/06 04:49:21;;;;;;;4.53;2.67;;;;;;;;;;5113362;28;20416;-55
2022/08/06 04:51:47;;;;;;;2.90;2.60;;;;;;;;;;5112923;28;20469;-55
2022/08/06 04:54:15;;;;;;;3.70;2.50;;;;;;;;;;5112945;28;20419;-55
2022/08/06 04:56:41;;;;;;;4.18;2.60;;;;;;;;;;5112631;27;20396;-55
2022/08/06 04:59:07;;;;;;;3.42;2.78;;;;;;;;;;5112589;28;20406;-55
2022/08/06 05:01:33;;;;;;;3.10;2.60;;;;;;;;;;5112444;28;20396;-56
2022/08/06 05:03:59;;;;;;;4.03;3.00;;;;;;;;;;5112658;28;20882;-56
2022/08/06 05:06:29;;;;;;;3.80;2.70;;;;;;;;;;5112638;28;20411;-56
2022/08/06 05:08:59;;;;;;;2.70;2.50;;;;;;;;;;5112602;28;20469;-54
2022/08/06 05:11:28;;;;;;;3.65;2.60;;;;;;;;;;5112652;28;20392;-54
2022/08/06 05:13:58;;;;;;;3.83;2.70;;;;;;;;;;5112478;28;20451;-55
2022/08/06 05:16:25;;;;;;;3.30;2.88;;;;;;;;;;5112709;28;20542;-54
2022/08/06 05:18:52;;;;;;;3.88;2.53;;;;;;;;;;5112300;28;20877;-54
2022/08/06 05:21:21;;;;;;;3.58;2.72;;;;;;;;;;5112536;28;20396;-54
2022/08/06 05:23:48;;;;;;;2.88;2.50;;;;;;;;;;5112340;28;20383;-55
2022/08/06 05:26:14;;;;;;;2.70;2.50;;;;;;;;;;5112520;28;20400;-56
2022/08/06 05:28:42;;;;;;;6.47;3.10;;;;;;;;;;5110859;28;20412;-56
2022/08/06 05:31:08;;;;;;;3.45;2.90;;;;;;;;;;5112465;27;20400;-55
2022/08/06 05:33:38;;;;;;;4.28;3.03;;;;;;;;;;5111393;28;20463;-56
2022/08/06 05:36:05;;;;;;;4.03;3.20;;;;;;;;;;5111602;28;20920;-55
2022/08/06 05:38:32;;;;;;;4.20;3.05;;;;;;;;;;5112222;28;20392;-55
2022/08/06 05:40:58;;;;;;;4.00;3.17;;;;;;;;;;5111963;28;20412;-55
2022/08/06 05:43:24;;;;;;;3.83;2.80;;;;;;;;;;5111834;28;20384;-55
2022/08/06 05:45:55;;;;;;;3.88;2.80;;;;;;;;;;5111770;28;20436;-56
2022/08/06 05:48:22;;;;;;;3.30;3.00;;;;;;;;;;5110247;28;20404;-54
2022/08/06 05:50:50;;;;;;;3.33;2.60;;;;;;;;;;5111802;28;20754;-55
2022/08/06 05:53:18;;;;;;;3.03;2.67;;;;;;;;;;5111920;27;20401;-55
2022/08/06 05:55:49;;;;;;;3.53;2.63;;;;;;;;;;5111685;28;20405;-55
2022/08/06 05:58:18;;;;;;;3.28;2.80;;;;;;;;;;5111620;28;20439;-55
2022/08/06 06:00:44;;;;;;;3.45;2.60;;;;;;;;;;5111719;28;20487;-55
2022/08/06 06:03:12;;;;;;;3.13;2.42;;;;;;;;;;5111399;28;20396;-53
2022/08/06 06:05:39;;;;;;;2.97;2.67;;;;;;;;;;5111423;28;20813;-53
2022/08/06 06:08:06;;;;;;;5.20;2.65;;;;;;;;;;5111007;28;20412;-54
2022/08/06 06:10:33;;;;;;;4.40;2.40;;;;;;;;;;5111620;28;20488;-53
2022/08/06 06:13:00;;;;;;;5.43;2.50;;;;;;;;;;5110672;28;20403;-54
2022/08/06 06:15:26;;;;;;;3.45;2.30;;;;;;;;;;5111476;28;20419;-55
2022/08/06 06:18:07;;;;;;;3.70;2.50;;;;;;;;;;5111216;28;20396;-55
2022/08/06 06:20:41;;;;;;;3.03;2.28;;;;;;;;;;5111410;28;20850;-56
2022/08/06 06:23:11;;;;;;;2.95;2.20;;;;;;;;;;5111218;28;20462;-55
2022/08/06 06:25:41;;;;;;;2.78;2.00;;;;;;;;;;5111167;28;20520;-55
2022/08/06 06:28:16;;;;;;;3.40;2.10;;;;;;;;;;5110943;28;20422;-55
2022/08/06 06:30:48;;;;;;;3.58;2.00;;;;;;;;;;5111243;28;20420;-54
2022/08/06 06:33:19;;;;;;;5.68;2.20;;;;;;;;;;5110988;28;20449;-55
2022/08/06 06:35:51;;;;;;;3.20;2.05;;;;;;;;;;5110964;27;20973;-55
2022/08/06 06:38:23;;;;;;;4.00;2.13;;;;;;;;;;5111314;28;20405;-55
2022/08/06 06:40:52;;;;;;;3.25;2.10;;;;;;;;;;5110885;28;20396;-55
2022/08/06 06:43:21;;;;;;;4.30;2.40;;;;;;;;;;5111197;28;20494;-55
2022/08/06 06:45:52;;;;;;;3.20;2.30;;;;;;;;;;5110919;28;20479;-55
2022/08/06 06:48:20;;;;;;;3.30;2.30;;;;;;;;;;5112592;28;20229;-55
2022/08/06 06:50:49;;;;;;;2.07;1.90;;;;;;;;;;5107151;28;20327;-55
2022/08/06 06:53:16;;;;;;;2.50;2.00;;;;;;;;;;5089739;28;20540;-56
2022/08/06 06:55:44;;;;;;;1.63;1.53;;;;;;;;;;5090877;28;20654;-55
2022/08/06 06:58:11;;;;;;;2.87;1.90;;;;;;;;;;5091083;28;20210;-56
2022/08/06 07:00:38;;;;;;;2.87;2.10;;;;;;;;;;5091464;28;20195;-56
2022/08/06 07:03:05;;;;;;;3.70;2.10;;;;;;;;;;5089577;28;20291;-56
2022/08/06 07:05:31;;;;;;;2.10;1.80;;;;;;;;;;5090569;28;20249;-56
2022/08/06 07:08:00;;;;;;;2.80;1.73;;;;;;;;;;5091038;28;20246;-56
2022/08/06 07:10:26;;;;;;;2.77;2.10;;;;;;;;;;5090080;28;20190;-56
2022/08/06 07:12:54;;;;;;;3.92;2.00;;;;;;;;;;5089379;28;20417;-56
2022/08/06 07:15:21;;;;;;;2.00;1.90;;;;;;;;;;5088654;28;20199;-56
2022/08/06 07:17:49;;;;;;;4.63;1.73;;;;;;;;;;5090552;28;20199;-56
2022/08/06 07:20:17;;;;;;;2.47;1.60;;;;;;;;;;5090125;28;20433;-56
2022/08/06 07:22:43;;;;;;;2.43;1.83;;;;;;;;;;5090026;28;20560;-56
2022/08/06 07:25:13;;;;;;;5.20;1.90;;;;;;;;;;5094870;28;20211;-56
2022/08/06 07:27:40;;;;;;;3.00;1.83;;;;;;;;;;5095423;28;20564;-56
2022/08/06 07:30:08;;;;;;;2.10;1.50;;;;;;;;;;5095044;28;20227;-56
2022/08/06 07:32:35;;;;;;;2.53;1.30;;;;;;;;;;5095455;28;20269;-56
2022/08/06 07:35:01;;;;;;;1.70;1.20;;;;;;;;;;5095283;28;20279;-56
2022/08/06 07:37:29;;;;;;;2.63;1.37;;;;;;;;;;5095173;28;20291;-56
2022/08/06 07:39:56;;;;;;;1.77;1.10;;;;;;;;;;5094575;28;20276;-55
2022/08/06 07:42:24;;;;;;;3.97;1.03;;;;;;;;;;5094874;28;20211;-56
2022/08/06 07:45:02;;;;;;;0.93;0.80;;;;;;;;;;5094822;28;20229;-56
2022/08/06 07:47:30;;;;;;;2.07;1.00;;;;;;;;;;5093823;28;20216;-56
2022/08/06 07:49:58;;;;;;;3.90;1.20;;;;;;;;;;5093951;28;20282;-56
2022/08/06 07:52:25;;;;;;;2.50;0.90;;;;;;;;;;5094941;28;20198;-56
2022/08/06 07:54:51;;;;;;;1.50;0.80;;;;;;;;;;5094780;28;20191;-56
2022/08/06 07:57:18;;;;;;;2.10;0.83;;;;;;;;;;5094780;28;20195;-56
2022/08/06 07:59:45;;;;;;;2.30;1.00;;;;;;;;;;5093606;28;20532;-56
2022/08/06 08:02:13;;;;;;;1.70;1.17;;;;;;;;;;5094202;28;20605;-57
2022/08/06 08:07:24;;;;;;;0.83;0.67;;;;;;;;;;5094168;28;20233;-56
2022/08/06 08:09:50;;;;;;;2.57;0.70;;;;;;;;;;5094145;28;20232;-55
2022/08/06 08:12:17;;;;;;;1.63;0.60;;;;;;;;;;5094152;28;20209;-56
2022/08/06 08:14:43;;;;;;;1.77;0.80;;;;;;;;;;5094369;28;20283;-57
2022/08/06 08:17:11;;;;;;;1.43;0.40;;;;;;;;;;5094593;28;20194;-56
2022/08/06 08:19:37;;;;;;;1.77;0.50;;;;;;;;;;5093617;28;20218;-57
2022/08/06 08:22:05;;;;;;;2.03;0.90;;;;;;;;;;5094277;28;20687;-56
2022/08/06 08:24:32;;;;;;;0.97;0.50;;;;;;;;;;5093230;28;20203;-57
2022/08/06 08:26:59;;;;;;;2.83;0.70;;;;;;;;;;5094367;28;20228;-57
2022/08/06 08:29:25;;;;;;;1.10;0.73;;;;;;;;;;5093897;28;20270;-57
2022/08/06 08:31:51;;;;;;;1.23;0.63;;;;;;;;;;5093907;28;20604;-56
2022/08/06 08:34:18;;;;;;;1.00;0.57;;;;;;;;;;5094102;28;20195;-56
2022/08/06 08:36:44;;;;;;;1.23;0.80;;;;;;;;;;5093281;28;20267;-57
2022/08/06 08:39:11;;;;;;;2.10;0.60;;;;;;;;;;5093703;28;20567;-56
2022/08/06 08:41:39;;;;;;;1.83;0.73;;;;;;;;;;5092794;28;20191;-57
2022/08/06 08:44:06;;;;;;;4.30;0.70;;;;;;;;;;5093647;28;20815;-57
2022/08/06 08:46:33;;;;;;;1.03;0.33;;;;;;;;;;5094165;28;20710;-57
2022/08/06 08:49:02;;;;;;;0.87;0.60;;;;;;;;;;5093849;28;20228;-57
2022/08/06 08:51:31;;;;;;;1.27;0.50;;;;;;;;;;5093807;28;20289;-57
2022/08/06 08:54:00;;;;;;;1.00;0.70;;;;;;;;;;5093636;28;20203;-57
2022/08/06 08:56:26;;;;;;;1.37;0.53;;;;;;;;;;5090234;28;20731;-57
2022/08/06 08:58:52;;;;;;;2.50;0.87;;;;;;;;;;5093253;28;20193;-57
2022/08/06 09:01:18;;;;;;;0.87;0.30;;;;;;;;;;5092734;28;20208;-57
2022/08/06 09:03:44;;;;;;;0.40;0.40;;;;;;;;;;5092395;28;20206;-57
2022/08/06 09:06:11;;;;;;;2.43;0.70;;;;;;;;;;5093529;28;20206;-61
2022/08/06 09:08:38;;;;;;;3.77;0.90;;;;;;;;;;5093206;28;20495;-60
2022/08/06 09:11:05;;;;;;;1.47;0.80;;;;;;;;;;5093320;28;20559;-59
2022/08/06 09:13:31;;;;;;;2.23;0.63;;;;;;;;;;5091699;28;20663;-54
2022/08/06 09:15:58;;;;;;;1.60;0.90;;;;;;;;;;5093604;28;20199;-55
2022/08/06 09:18:25;;;;;;;0.53;0.30;;;;;;;;;;5091175;28;20212;-54
2022/08/06 09:20:51;;;;;;;0.83;0.30;;;;;;;;;;5093141;28;20198;-54
2022/08/06 09:23:18;;;;;;;1.47;0.80;;;;;;;;;;5091341;28;20581;-55
2022/08/06 09:25:47;;;;;;;1.30;0.60;;;;;;;;;;5093551;28;20631;-54
2022/08/06 09:28:26;;;;;;;2.57;0.53;;;;;;;;;;5093333;28;20208;-55
2022/08/06 09:30:57;;;;;;;1.87;0.50;;;;;;;;;;5093179;28;20228;-55
2022/08/06 09:33:23;;;;;;;0.87;0.60;;;;;;;;;;5093303;28;20201;-55
2022/08/06 09:35:57;;;;;;;2.47;0.70;;;;;;;;;;5093194;28;20289;-55
2022/08/06 09:38:23;;;;;;;2.00;0.50;;;;;;;;;;5093132;28;20686;-55
2022/08/06 09:41:03;;;;;;;0.77;0.43;;;;;;;;;;5093016;28;20205;-54
2022/08/06 09:43:29;;;;;;;0.47;0.30;;;;;;;;;;5093386;28;20212;-54
2022/08/06 09:45:55;;;;;;;0.93;0.50;;;;;;;;;;5092955;28;20249;-55
2022/08/06 09:48:22;;;;;;;0.80;0.43;;;;;;;;;;5091750;28;20256;-54
2022/08/06 09:50:49;;;;;;;1.13;0.50;;;;;;;;;;5088979;28;20209;-55
2022/08/06 09:53:17;;;;;;;4.10;0.70;;;;;;;;;;5092672;28;20203;-55
2022/08/06 09:55:44;;;;;;;1.17;0.50;;;;;;;;;;5092766;28;20288;-54
2022/08/06 09:58:11;;;;;;;0.20;0.20;;;;;;;;;;5092792;28;20203;-55
2022/08/06 10:00:38;;;;;;;1.20;0.60;;;;;;;;;;5092809;28;20302;-55
2022/08/06 10:03:05;;;;;;;1.20;0.40;;;;;;;;;;5092825;28;20188;-55
2022/08/06 10:05:32;;;;;;;0.77;0.50;;;;;;;;;;5092882;28;20195;-55
2022/08/06 10:08:03;;;;;;;1.07;0.43;;;;;;;;;;5092587;28;20226;-55
2022/08/06 10:10:39;;;;;;;0.77;0.40;;;;;;;;;;5092900;28;20223;-55
2022/08/06 10:13:12;;;;;;;1.37;0.70;;;;;;;;;;5092507;28;20199;-55
2022/08/06 10:15:38;;;;;;;1.10;0.60;;;;;;;;;;5092531;28;20708;-55
2022/08/06 10:18:04;;;;;;;4.30;0.80;;;;;;;;;;5092385;28;20256;-55
2022/08/06 10:20:30;;;;;;;0.83;0.40;;;;;;;;;;5092714;28;20223;-54
2022/08/06 10:22:59;;;;;;;1.83;0.57;;;;;;;;;;5092455;28;20197;-55
2022/08/06 10:25:28;;;;;;;1.03;0.37;;;;;;;;;;5092474;28;20206;-55
2022/08/06 10:27:54;;;;;;;1.50;0.50;;;;;;;;;;5092632;28;20255;-55
2022/08/06 10:30:22;;;;;;;1.03;0.60;;;;;;;;;;5092364;28;20323;-55
2022/08/06 10:32:53;;;;;;;2.33;0.57;;;;;;;;;;5092381;28;20234;-55
2022/08/06 10:35:20;;;;;;;1.30;0.50;;;;;;;;;;5092435;28;20204;-55
2022/08/06 10:37:50;;;;;;;0.67;0.40;;;;;;;;;;5092348;28;20208;-54
2022/08/06 10:40:17;;;;;;;0.40;0.40;;;;;;;;;;5092225;28;20199;-55
2022/08/06 10:42:43;;;;;;;0.97;0.43;;;;;;;;;;5092081;28;20649;-55
2022/08/06 10:45:11;;;;;;;0.53;0.53;;;;;;;;;;5091928;28;20389;-55
2022/08/06 10:47:39;;;;;;;0.33;0.30;;;;;;;;;;5092436;28;20559;-55
2022/08/06 10:50:05;;;;;;;1.37;0.53;;;;;;;;;;5091901;28;20635;-54
2022/08/06 10:52:32;;;;;;;1.10;0.43;;;;;;;;;;5092032;28;20778;-55
2022/08/06 10:54:59;;;;;;;1.23;0.80;;;;;;;;;;5091875;28;20249;-55
2022/08/06 10:57:27;;;;;;;0.40;0.37;;;;;;;;;;5090226;28;20670;-54
2022/08/06 10:59:53;;;;;;;0.67;0.43;;;;;;;;;;5091258;28;20205;-55
2022/08/06 11:02:22;;;;;;;0.77;0.33;;;;;;;;;;5091581;28;20198;-55
2022/08/06 11:04:53;;;;;;;0.30;0.30;;;;;;;;;;5091477;28;20209;-54
2022/08/06 11:07:38;;;;;;;0.97;0.37;;;;;;;;;;5090411;28;20264;-55
2022/08/06 11:10:33;;;;;;;0.73;0.53;;;;;;;;;;5110846;28;21298;-55
2022/08/06 11:13:03;;;;;;;5.50;0.73;;;;;;;;;;5063575;28;20667;-55
2022/08/06 11:15:34;;;;;;;1.03;0.50;;;;;;;;;;5111581;28;20718;-55
2022/08/06 11:18:03;;;;;;;0.50;0.50;;;;;;;;;;5111688;28;20204;-55
2022/08/06 11:20:40;;;;;;;0.30;0.30;;;;;;;;;;5111979;28;20577;-55
2022/08/06 11:23:21;;;;;;;1.50;0.40;;;;;;;;;;5111664;28;20295;-55
2022/08/06 11:25:48;;;;;;;1.03;0.27;;;;;;;;;;5110264;28;20720;-55
2022/08/06 11:28:15;;;;;;;0.20;0.20;;;;;;;;;;5110839;28;20213;-55
2022/08/06 11:30:42;;;;;;;0.53;0.30;;;;;;;;;;5111351;28;20263;-55
2022/08/06 11:33:11;;;;;;;1.10;0.40;;;;;;;;;;5111445;28;20232;-55
2022/08/06 11:35:43;;;;;;;0.93;0.50;;;;;;;;;;5111704;28;20547;-55
2022/08/06 11:38:10;;;;;;;4.83;0.60;;;;;;;;;;5111436;28;20209;-55
2022/08/06 11:41:00;;;;;;;0.83;0.40;;;;;;;;;;5111581;28;20659;-55
2022/08/06 11:43:48;;;;;;;0.20;0.17;;;;;;;;;;5090974;28;20202;-55
2022/08/06 11:46:18;;;;;;;0.93;0.40;;;;;;;;;;5111441;28;20324;-55
2022/08/06 11:48:59;;;;;;;0.87;0.47;;;;;;;;;;5111489;28;20252;-55
2022/08/06 11:51:37;;;;;;;0.57;0.33;;;;;;;;;;5110739;28;20200;-55
2022/08/06 11:54:09;;;;;;;0.83;0.30;;;;;;;;;;5111480;28;20207;-55
2022/08/06 11:56:35;;;;;;;0.83;0.37;;;;;;;;;;5111487;28;20208;-55
2022/08/06 11:59:14;;;;;;;0.43;0.30;;;;;;;;;;5111234;28;20191;-55
2022/08/06 12:01:47;;;;;;;0.30;0.30;;;;;;;;;;5110748;28;20245;-55
2022/08/06 12:04:27;;;;;;;1.33;0.50;;;;;;;;;;5111357;28;20653;-55
2022/08/06 12:07:08;;;;;;;3.23;0.60;;;;;;;;;;5110404;28;20940;-55
2022/08/06 12:09:37;;;;;;;0.60;0.33;;;;;;;;;;5110947;28;20234;-55
2022/08/06 12:12:32;;;;;;;1.23;0.60;;;;;;;;;;5114253;28;20605;-55
2022/08/06 12:14:58;;;;;;;2.87;0.50;;;;;;;;;;5115089;28;20276;-55
2022/08/06 12:17:25;;;;;;;0.63;0.40;;;;;;;;;;5115102;28;20215;-55
2022/08/06 12:19:53;;;;;;;1.20;0.60;;;;;;;;;;5114867;28;20191;-55
2022/08/06 12:22:20;;;;;;;0.63;0.60;;;;;;;;;;5115032;28;20194;-55
2022/08/06 12:24:53;;;;;;;1.50;0.60;;;;;;;;;;5114908;28;20281;-55
2022/08/06 12:27:19;;;;;;;0.53;0.40;;;;;;;;;;5114732;28;20295;-55
2022/08/06 12:29:45;;;;;;;0.57;0.30;;;;;;;;;;5113951;28;20229;-55
2022/08/06 12:32:24;;;;;;;0.93;0.50;;;;;;;;;;5113918;28;20256;-54
2022/08/06 12:34:51;;;;;;;1.10;0.40;;;;;;;;;;5114671;28;20203;-55
2022/08/06 12:37:17;;;;;;;1.53;0.47;;;;;;;;;;5114592;28;20559;-55
2022/08/06 12:42:31;;;;;;;1.10;0.30;;;;;;;;;;5114728;28;20243;-54
2022/08/06 12:44:57;;;;;;;2.93;0.80;;;;;;;;;;5114390;28;20363;-55
2022/08/06 12:47:25;;;;;;;0.77;0.67;;;;;;;;;;5114360;28;20198;-55
2022/08/06 12:49:51;;;;;;;0.40;0.40;;;;;;;;;;5112879;28;20225;-55
2022/08/06 12:52:20;;;;;;;0.90;0.50;;;;;;;;;;5114773;28;20200;-53
2022/08/06 12:54:46;;;;;;;1.60;0.53;;;;;;;;;;5114370;28;20566;-53
2022/08/06 12:57:19;;;;;;;1.77;0.60;;;;;;;;;;5114081;28;20299;-54
2022/08/06 12:59:47;;;;;;;0.70;0.40;;;;;;;;;;5112552;28;20194;-55
2022/08/06 13:02:13;;;;;;;0.53;0.47;;;;;;;;;;5113430;28;20209;-54
2022/08/06 13:04:42;;;;;;;3.07;0.60;;;;;;;;;;5114053;28;20204;-54
2022/08/06 13:07:08;;;;;;;1.63;0.60;;;;;;;;;;5114010;28;20234;-54
2022/08/06 13:09:34;;;;;;;0.80;0.40;;;;;;;;;;5112696;28;20695;-54
2022/08/06 13:12:10;;;;;;;0.93;0.60;;;;;;;;;;5114000;28;20206;-56
2022/08/06 13:14:49;;;;;;;1.07;0.80;;;;;;;;;;5114193;28;20245;-54
2022/08/06 13:17:15;;;;;;;0.60;0.50;;;;;;;;;;5113994;28;20212;-54
2022/08/06 13:19:50;;;;;;;0.90;0.40;;;;;;;;;;5113957;28;20693;-54
2022/08/06 13:22:16;;;;;;;0.77;0.47;;;;;;;;;;5113703;28;20219;-54
2022/08/06 13:24:42;;;;;;;3.23;0.50;;;;;;;;;;5112408;28;20570;-54
2022/08/06 13:27:08;;;;;;;1.27;0.50;;;;;;;;;;5114049;28;20201;-54
2022/08/06 13:29:35;;;;;;;1.23;1.13;;;;;;;;;;5113639;28;20220;-54
2022/08/06 13:32:03;;;;;;;0.83;0.40;;;;;;;;;;5113656;28;20223;-54
2022/08/06 13:34:29;;;;;;;1.30;0.50;;;;;;;;;;5113748;28;20290;-54
2022/08/06 13:36:58;;;;;;;0.87;0.30;;;;;;;;;;5113548;28;20205;-53
2022/08/06 13:39:25;;;;;;;0.93;0.60;;;;;;;;;;5113592;28;20204;-54
2022/08/06 13:42:04;;;;;;;1.10;0.47;;;;;;;;;;5113448;28;20198;-54
2022/08/06 13:44:31;;;;;;;0.80;0.67;;;;;;;;;;5112160;28;20237;-54
2022/08/06 13:46:57;;;;;;;0.50;0.40;;;;;;;;;;5111615;28;20225;-54
2022/08/06 13:49:24;;;;;;;1.13;0.67;;;;;;;;;;5113175;28;20317;-54
2022/08/06 13:51:50;;;;;;;0.90;0.67;;;;;;;;;;5113135;28;20196;-54
2022/08/06 13:54:16;;;;;;;2.67;0.80;;;;;;;;;;5113143;28;20216;-54
2022/08/06 13:56:43;;;;;;;1.13;0.70;;;;;;;;;;5113185;28;20245;-54
2022/08/06 13:59:09;;;;;;;1.67;0.60;;;;;;;;;;5112970;28;20234;-54
2022/08/06 14:01:35;;;;;;;3.20;0.60;;;;;;;;;;5113120;28;20225;-54
2022/08/06 14:04:01;;;;;;;2.00;0.70;;;;;;;;;;5111327;28;20203;-54
2022/08/06 14:06:28;;;;;;;1.27;0.70;;;;;;;;;;5112843;28;20200;-54
2022/08/06 14:08:54;;;;;;;0.70;0.40;;;;;;;;;;5112849;28;20204;-54
2022/08/06 14:11:20;;;;;;;0.80;0.60;;;;;;;;;;5112791;28;20260;-55
2022/08/06 14:13:46;;;;;;;1.70;0.80;;;;;;;;;;5112773;28;20220;-54
2022/08/06 14:16:13;;;;;;;1.40;0.60;;;;;;;;;;5112625;28;20577;-54
2022/08/06 14:18:39;;;;;;;0.87;0.63;;;;;;;;;;5112493;28;20557;-56
2022/08/06 14:21:05;;;;;;;1.40;0.57;;;;;;;;;;5112592;28;20201;-54
2022/08/06 14:23:32;;;;;;;1.40;0.40;;;;;;;;;;5111264;28;20656;-55
2022/08/06 14:25:58;;;;;;;1.90;0.67;;;;;;;;;;5111144;28;20205;-54
2022/08/06 14:28:25;;;;;;;1.57;0.67;;;;;;;;;;5112678;28;20302;-54
2022/08/06 14:30:51;;;;;;;1.40;0.40;;;;;;;;;;5112575;28;20256;-54
2022/08/06 14:33:18;;;;;;;1.37;0.50;;;;;;;;;;5111950;28;20209;-54
2022/08/06 14:35:44;;;;;;;1.33;0.60;;;;;;;;;;5112546;28;20204;-54
2022/08/06 14:38:12;;;;;;;4.00;0.90;;;;;;;;;;5112852;28;20249;-54
2022/08/06 14:46:09;;;;;;;0.90;0.47;;;;;;;;;;5110714;28;20211;-54
2022/08/06 14:48:35;;;;;;;2.40;0.63;;;;;;;;;;5112607;28;20667;-54
2022/08/06 14:51:01;;;;;;;1.10;0.47;;;;;;;;;;5111971;28;20228;-56
2022/08/06 14:53:27;;;;;;;2.37;0.60;;;;;;;;;;5111363;28;20203;-54
2022/08/06 14:55:54;;;;;;;1.60;0.50;;;;;;;;;;5111904;28;20199;-54
2022/08/06 14:58:20;;;;;;;2.57;0.50;;;;;;;;;;5111880;28;20688;-55
2022/08/06 15:00:47;;;;;;;0.97;0.40;;;;;;;;;;5111712;28;20188;-55